Time;durP1;ratioP1;P1;durP2;ratioP2;P2;SDS_P1;SDS_P2;PMS_P1;PMS_P2;Temp;Humidity;BMP_temperature;BMP_pressure;BME280_temperature;BME280_humidity;BME280_pressure;Samples;Min_cycle;Max_cycle;Signal;HPM_P1;HPM_P2
2023/06/12 00:00:51;;;;;;;8.27;3.00;;;;;;;;;;4911650;28;20078;-74
2023/06/12 00:03:19;;;;;;;6.13;2.78;;;;;;;;;;4932422;28;20126;-74
2023/06/12 00:05:45;;;;;;;9.55;2.65;;;;;;;;;;4931960;28;20133;-74
2023/06/12 00:08:13;;;;;;;9.57;2.95;;;;;;;;;;4933102;28;20043;-73
2023/06/12 00:10:40;;;;;;;5.10;2.60;;;;;;;;;;4915440;28;20079;-73
2023/06/12 00:13:09;;;;;;;8.77;3.33;;;;;;;;;;4916111;28;20055;-73
2023/06/12 00:15:35;;;;;;;5.40;2.50;;;;;;;;;;4929898;28;20116;-73
2023/06/12 00:18:02;;;;;;;4.93;2.88;;;;;;;;;;4910079;29;20043;-73
2023/06/12 00:20:28;;;;;;;8.88;2.72;;;;;;;;;;4932894;28;20047;-73
2023/06/12 00:22:54;;;;;;;5.97;2.65;;;;;;;;;;4925460;28;20049;-73
2023/06/12 00:25:21;;;;;;;8.82;2.88;;;;;;;;;;4912808;28;20051;-73
2023/06/12 00:27:47;;;;;;;9.02;2.80;;;;;;;;;;4909747;28;20055;-73
2023/06/12 00:30:14;;;;;;;7.75;3.00;;;;;;;;;;4908963;28;20934;-73
2023/06/12 00:32:40;;;;;;;4.93;2.88;;;;;;;;;;4916594;28;20071;-74
2023/06/12 00:35:06;;;;;;;8.68;3.13;;;;;;;;;;4912955;28;20043;-74
2023/06/12 00:37:33;;;;;;;7.88;2.80;;;;;;;;;;4908131;28;23421;-73
2023/06/12 00:39:59;;;;;;;13.57;2.55;;;;;;;;;;4913582;28;20057;-74
2023/06/12 00:42:33;;;;;;;6.07;2.67;;;;;;;;;;4911005;28;20046;-74
2023/06/12 00:44:59;;;;;;;12.63;2.80;;;;;;;;;;4913572;28;20055;-73
2023/06/12 00:47:26;;;;;;;11.10;3.40;;;;;;;;;;4929786;28;20050;-74
2023/06/12 00:49:53;;;;;;;7.65;2.70;;;;;;;;;;4896426;28;20069;-73
2023/06/12 00:52:22;;;;;;;4.85;2.83;;;;;;;;;;4929791;28;20439;-74
2023/06/12 00:54:48;;;;;;;8.40;2.60;;;;;;;;;;4911159;29;20048;-74
2023/06/12 00:57:14;;;;;;;10.60;3.15;;;;;;;;;;4930744;28;21006;-74
2023/06/12 00:59:40;;;;;;;7.35;2.83;;;;;;;;;;4933679;28;20237;-74
2023/06/12 01:02:09;;;;;;;9.35;2.80;;;;;;;;;;4917771;28;20050;-73
2023/06/12 01:04:37;;;;;;;6.22;3.10;;;;;;;;;;4934595;28;20055;-73
2023/06/12 01:07:21;;;;;;;8.55;3.10;;;;;;;;;;4917486;28;20061;-73
2023/06/12 01:09:47;;;;;;;8.27;3.00;;;;;;;;;;4918024;28;20454;-74
2023/06/12 01:12:14;;;;;;;7.97;3.17;;;;;;;;;;4934000;28;20101;-73
2023/06/12 01:14:44;;;;;;;9.52;2.55;;;;;;;;;;4917638;28;20214;-73
2023/06/12 01:17:10;;;;;;;8.88;3.20;;;;;;;;;;4917581;28;20089;-74
2023/06/12 01:19:37;;;;;;;8.32;3.00;;;;;;;;;;4935059;28;20084;-73
2023/06/12 01:22:08;;;;;;;10.57;3.03;;;;;;;;;;4916839;28;20133;-73
2023/06/12 01:24:54;;;;;;;4.90;3.00;;;;;;;;;;4934279;28;20054;-73
2023/06/12 01:27:38;;;;;;;6.97;3.50;;;;;;;;;;4915354;28;20051;-73
2023/06/12 01:30:04;;;;;;;11.85;3.20;;;;;;;;;;4882277;29;20523;-73
2023/06/12 01:32:31;;;;;;;5.72;3.20;;;;;;;;;;4895063;29;20123;-73
2023/06/12 01:34:57;;;;;;;8.20;3.25;;;;;;;;;;4927780;28;20527;-73
2023/06/12 01:37:42;;;;;;;4.22;3.03;;;;;;;;;;4933650;28;20074;-73
2023/06/12 01:40:09;;;;;;;6.88;3.42;;;;;;;;;;4932635;28;20503;-73
2023/06/12 01:42:35;;;;;;;6.72;3.67;;;;;;;;;;4918822;28;20039;-73
2023/06/12 01:45:01;;;;;;;6.32;2.95;;;;;;;;;;4911165;28;20087;-73
2023/06/12 01:47:28;;;;;;;6.03;3.20;;;;;;;;;;4932593;28;20130;-73
2023/06/12 01:49:54;;;;;;;9.38;3.30;;;;;;;;;;4910604;28;20094;-73
2023/06/12 01:52:20;;;;;;;11.50;3.40;;;;;;;;;;4909969;28;20072;-72
2023/06/12 01:54:49;;;;;;;8.20;4.20;;;;;;;;;;4923482;28;20153;-73
2023/06/12 01:57:19;;;;;;;6.18;3.17;;;;;;;;;;4895638;28;20090;-73
2023/06/12 01:59:45;;;;;;;9.52;3.33;;;;;;;;;;4913605;28;20088;-73
2023/06/12 02:02:11;;;;;;;8.68;2.95;;;;;;;;;;4906622;28;21712;-74
2023/06/12 02:04:37;;;;;;;10.10;3.97;;;;;;;;;;4911126;28;20046;-73
2023/06/12 02:07:04;;;;;;;8.20;3.42;;;;;;;;;;4925604;28;20047;-73
2023/06/12 02:09:31;;;;;;;7.47;3.28;;;;;;;;;;4908841;28;20139;-73
2023/06/12 02:11:57;;;;;;;9.13;3.00;;;;;;;;;;4903578;28;20186;-73
2023/06/12 02:14:26;;;;;;;11.15;3.58;;;;;;;;;;4906006;28;20415;-73
2023/06/12 02:16:55;;;;;;;7.40;3.40;;;;;;;;;;4923519;28;20044;-73
2023/06/12 02:19:22;;;;;;;6.53;3.33;;;;;;;;;;4923627;28;20185;-73
2023/06/12 02:21:58;;;;;;;6.70;3.22;;;;;;;;;;4904654;28;20126;-73
2023/06/12 02:24:29;;;;;;;8.73;3.30;;;;;;;;;;4925822;28;20046;-74
2023/06/12 02:26:56;;;;;;;11.05;3.83;;;;;;;;;;4906605;28;20138;-73
2023/06/12 02:29:28;;;;;;;6.78;3.47;;;;;;;;;;4910978;28;20742;-73
2023/06/12 02:31:54;;;;;;;8.88;3.63;;;;;;;;;;4927344;28;20048;-73
2023/06/12 02:34:20;;;;;;;5.18;3.28;;;;;;;;;;4894907;28;20403;-73
2023/06/12 02:36:46;;;;;;;4.97;3.10;;;;;;;;;;4913788;28;20047;-73
2023/06/12 02:39:13;;;;;;;8.38;3.15;;;;;;;;;;4924929;28;20043;-72
2023/06/12 02:41:46;;;;;;;6.75;3.10;;;;;;;;;;4894813;28;20043;-73
2023/06/12 02:44:12;;;;;;;7.80;2.95;;;;;;;;;;4930124;28;21569;-72
2023/06/12 02:46:55;;;;;;;8.95;3.65;;;;;;;;;;4906707;28;20086;-73
2023/06/12 02:49:21;;;;;;;6.18;3.42;;;;;;;;;;4949175;28;20067;-74
2023/06/12 02:51:48;;;;;;;8.18;3.30;;;;;;;;;;4934047;28;20047;-74
2023/06/12 02:54:18;;;;;;;6.35;3.30;;;;;;;;;;4922046;28;20066;-74
2023/06/12 02:56:48;;;;;;;13.57;3.65;;;;;;;;;;4950256;28;20376;-74
2023/06/12 02:59:22;;;;;;;8.20;4.10;;;;;;;;;;4936608;28;20074;-74
2023/06/12 03:01:48;;;;;;;;;;;;;;;;;;4923362;28;20085;-75
2023/06/12 03:04:20;;;;;;;7.85;3.58;;;;;;;;;;4949526;28;20013;-74
2023/06/12 03:06:52;;;;;;;8.18;3.80;;;;;;;;;;4944885;28;20075;-74
2023/06/12 03:09:18;;;;;;;10.85;3.63;;;;;;;;;;4919142;28;20058;-74
2023/06/12 03:11:46;;;;;;;10.75;3.75;;;;;;;;;;4934491;28;20744;-74
2023/06/12 03:14:12;;;;;;;16.58;3.95;;;;;;;;;;4917104;28;20082;-74
2023/06/12 03:16:39;;;;;;;6.15;3.85;;;;;;;;;;4920392;28;20062;-73
2023/06/12 03:19:05;;;;;;;8.15;3.90;;;;;;;;;;4948399;28;20039;-74
2023/06/12 03:21:31;;;;;;;7.30;3.83;;;;;;;;;;4947506;28;20496;-74
2023/06/12 03:23:57;;;;;;;10.88;3.72;;;;;;;;;;4932201;28;20047;-73
2023/06/12 03:26:23;;;;;;;10.68;3.75;;;;;;;;;;4914155;28;20050;-74
2023/06/12 03:28:50;;;;;;;6.45;3.53;;;;;;;;;;4942972;28;20833;-74
2023/06/12 03:31:16;;;;;;;12.45;4.68;;;;;;;;;;4935481;28;20107;-74
2023/06/12 03:33:42;;;;;;;6.82;3.70;;;;;;;;;;4930634;28;20065;-74
2023/06/12 03:36:08;;;;;;;8.20;3.92;;;;;;;;;;4948506;28;20054;-75
2023/06/12 03:38:34;;;;;;;7.28;4.05;;;;;;;;;;4922038;28;20047;-74
2023/06/12 03:41:00;;;;;;;8.80;3.88;;;;;;;;;;4927203;28;20121;-75
2023/06/12 03:43:26;;;;;;;7.32;3.60;;;;;;;;;;4916222;28;20035;-75
2023/06/12 03:45:52;;;;;;;9.02;3.72;;;;;;;;;;4929849;28;20055;-74
2023/06/12 03:48:19;;;;;;;10.25;3.80;;;;;;;;;;4913393;28;20054;-73
2023/06/12 03:50:45;;;;;;;7.25;3.85;;;;;;;;;;4894227;28;20055;-73
2023/06/12 03:53:11;;;;;;;7.45;3.55;;;;;;;;;;4900157;28;20115;-73
2023/06/12 03:55:37;;;;;;;9.45;3.90;;;;;;;;;;4911531;28;20074;-73
2023/06/12 03:58:04;;;;;;;8.05;3.72;;;;;;;;;;4914103;28;20051;-73
2023/06/12 04:00:30;;;;;;;7.30;4.10;;;;;;;;;;4929212;28;20039;-73
2023/06/12 04:02:57;;;;;;;12.15;3.92;;;;;;;;;;4895546;28;20046;-73
2023/06/12 04:05:23;;;;;;;9.07;4.10;;;;;;;;;;4931943;28;20047;-73
2023/06/12 04:07:49;;;;;;;5.22;3.50;;;;;;;;;;4897612;28;20715;-74
2023/06/12 04:10:15;;;;;;;7.57;4.03;;;;;;;;;;4911767;28;20055;-73
2023/06/12 04:12:41;;;;;;;5.97;4.05;;;;;;;;;;4913162;28;20280;-74
2023/06/12 04:15:08;;;;;;;15.25;4.32;;;;;;;;;;4910850;28;20050;-74
2023/06/12 04:17:34;;;;;;;8.77;4.05;;;;;;;;;;4927998;28;20104;-74
2023/06/12 04:20:01;;;;;;;6.82;4.18;;;;;;;;;;4912143;28;20043;-73
2023/06/12 04:22:27;;;;;;;7.72;4.13;;;;;;;;;;4910416;28;20058;-73
2023/06/12 04:24:55;;;;;;;12.45;4.47;;;;;;;;;;4910042;28;20049;-73
2023/06/12 04:27:21;;;;;;;12.55;4.28;;;;;;;;;;4914329;28;20047;-73
2023/06/12 04:29:47;;;;;;;10.75;3.80;;;;;;;;;;4909395;28;20051;-73
2023/06/12 04:32:13;;;;;;;15.00;4.22;;;;;;;;;;4921584;28;20083;-74
2023/06/12 04:34:41;;;;;;;7.80;3.80;;;;;;;;;;4906427;29;20048;-74
2023/06/12 04:37:08;;;;;;;14.15;4.57;;;;;;;;;;4928273;28;20055;-73
2023/06/12 04:39:45;;;;;;;6.90;3.92;;;;;;;;;;4908935;28;20058;-73
2023/06/12 04:42:16;;;;;;;10.10;4.18;;;;;;;;;;4927834;28;20068;-73
2023/06/12 04:44:42;;;;;;;10.60;4.43;;;;;;;;;;4920844;28;20051;-74
2023/06/12 04:47:10;;;;;;;8.48;4.07;;;;;;;;;;4913782;28;20039;-73
2023/06/12 04:49:45;;;;;;;6.90;4.43;;;;;;;;;;4928616;28;20063;-74
2023/06/12 04:52:12;;;;;;;10.27;3.95;;;;;;;;;;4923280;28;20399;-74
2023/06/12 04:54:41;;;;;;;9.52;4.47;;;;;;;;;;4909969;28;20179;-74
2023/06/12 04:57:12;;;;;;;10.63;3.97;;;;;;;;;;4917394;28;20039;-74
2023/06/12 04:59:42;;;;;;;12.60;4.30;;;;;;;;;;4916925;28;20055;-73
2023/06/12 05:02:08;;;;;;;11.30;4.32;;;;;;;;;;4909408;28;20051;-73
2023/06/12 05:04:38;;;;;;;12.68;4.13;;;;;;;;;;4906694;28;20686;-73
2023/06/12 05:07:05;;;;;;;12.55;4.22;;;;;;;;;;4930175;28;20503;-73
2023/06/12 05:09:32;;;;;;;12.63;4.28;;;;;;;;;;4911268;28;20222;-73
2023/06/12 05:12:00;;;;;;;9.32;4.05;;;;;;;;;;4928050;28;20143;-73
2023/06/12 05:14:27;;;;;;;8.32;4.07;;;;;;;;;;4918597;28;20051;-73
2023/06/12 05:16:54;;;;;;;12.07;4.75;;;;;;;;;;4918836;28;20042;-73
2023/06/12 05:19:20;;;;;;;7.60;4.07;;;;;;;;;;4925691;28;20047;-74
2023/06/12 05:21:49;;;;;;;12.98;4.60;;;;;;;;;;4908797;28;20039;-74
2023/06/12 05:24:15;;;;;;;9.80;4.68;;;;;;;;;;4926232;28;20048;-73
2023/06/12 05:26:41;;;;;;;9.20;4.15;;;;;;;;;;4921995;28;20058;-73
2023/06/12 05:29:08;;;;;;;8.45;4.28;;;;;;;;;;4925842;28;20566;-74
2023/06/12 05:31:34;;;;;;;8.05;4.70;;;;;;;;;;4912350;28;20110;-74
2023/06/12 05:34:00;;;;;;;7.85;4.32;;;;;;;;;;4909731;28;20082;-73
2023/06/12 05:36:26;;;;;;;12.52;4.97;;;;;;;;;;4906491;28;20057;-74
2023/06/12 05:38:52;;;;;;;7.05;4.68;;;;;;;;;;4925325;28;20654;-73
2023/06/12 05:41:19;;;;;;;13.23;4.55;;;;;;;;;;4911520;28;20047;-73
2023/06/12 05:43:46;;;;;;;8.45;4.60;;;;;;;;;;4911698;28;20480;-74
2023/06/12 05:46:13;;;;;;;10.90;4.43;;;;;;;;;;4909193;28;20106;-74
2023/06/12 05:48:39;;;;;;;18.20;4.97;;;;;;;;;;4911864;28;20058;-74
2023/06/12 05:51:07;;;;;;;8.43;4.50;;;;;;;;;;4889534;29;20060;-73
2023/06/12 05:53:36;;;;;;;12.50;4.75;;;;;;;;;;4904398;29;20044;-73
2023/06/12 05:56:02;;;;;;;9.15;4.43;;;;;;;;;;4879886;29;20646;-72
2023/06/12 05:58:28;;;;;;;7.22;4.53;;;;;;;;;;4907288;29;20170;-74
2023/06/12 06:00:55;;;;;;;11.60;4.55;;;;;;;;;;4906636;29;20044;-73
2023/06/12 06:03:23;;;;;;;13.25;5.28;;;;;;;;;;4890190;29;20076;-73
2023/06/12 06:05:50;;;;;;;7.45;4.07;;;;;;;;;;4881794;29;20075;-73
2023/06/12 06:08:16;;;;;;;10.80;4.75;;;;;;;;;;4916097;29;20054;-73
2023/06/12 06:10:42;;;;;;;6.25;4.20;;;;;;;;;;4893781;29;20051;-73
2023/06/12 06:13:09;;;;;;;8.18;4.85;;;;;;;;;;4880572;29;20052;-73
2023/06/12 06:15:35;;;;;;;7.50;4.53;;;;;;;;;;4902961;29;20046;-73
2023/06/12 06:18:01;;;;;;;8.93;4.72;;;;;;;;;;4915217;29;20051;-74
2023/06/12 06:20:28;;;;;;;8.35;4.40;;;;;;;;;;4923660;29;20062;-75
2023/06/12 06:22:54;;;;;;;9.57;4.63;;;;;;;;;;4914623;29;20039;-75
2023/06/12 06:25:20;;;;;;;10.50;4.90;;;;;;;;;;4911784;29;21686;-75
2023/06/12 06:27:46;;;;;;;9.63;4.22;;;;;;;;;;4898874;29;20135;-74
2023/06/12 06:30:12;;;;;;;9.77;4.90;;;;;;;;;;4883497;29;20082;-74
2023/06/12 06:32:38;;;;;;;9.45;4.68;;;;;;;;;;4878464;29;20131;-74
2023/06/12 06:35:04;;;;;;;8.45;4.90;;;;;;;;;;4884534;29;20047;-73
2023/06/12 06:37:31;;;;;;;10.10;4.82;;;;;;;;;;4905854;29;20055;-73
2023/06/12 06:39:57;;;;;;;9.07;4.93;;;;;;;;;;4875626;29;20098;-73
2023/06/12 06:42:23;;;;;;;9.30;4.60;;;;;;;;;;4892524;29;20401;-73
2023/06/12 06:44:49;;;;;;;11.18;5.05;;;;;;;;;;4889966;29;20079;-72
2023/06/12 06:47:15;;;;;;;14.25;5.03;;;;;;;;;;4875763;29;20051;-73
2023/06/12 06:49:42;;;;;;;11.45;5.20;;;;;;;;;;4914893;28;20059;-73
2023/06/12 06:52:08;;;;;;;12.27;5.35;;;;;;;;;;4914210;28;20471;-73
2023/06/12 06:54:34;;;;;;;10.00;5.15;;;;;;;;;;4932262;28;20053;-73
2023/06/12 06:57:00;;;;;;;10.13;4.45;;;;;;;;;;4913712;28;20659;-73
2023/06/12 06:59:26;;;;;;;8.07;4.78;;;;;;;;;;4929577;28;20625;-74
2023/06/12 07:01:52;;;;;;;12.68;4.93;;;;;;;;;;4934987;28;20189;-74
2023/06/12 07:04:18;;;;;;;9.38;5.20;;;;;;;;;;4913066;28;20043;-74
2023/06/12 07:06:44;;;;;;;8.52;4.30;;;;;;;;;;4918762;28;20054;-73
2023/06/12 07:09:14;;;;;;;14.32;5.22;;;;;;;;;;4933664;28;20718;-73
2023/06/12 07:11:40;;;;;;;9.23;5.38;;;;;;;;;;4915941;28;20110;-73
2023/06/12 07:14:06;;;;;;;9.30;4.85;;;;;;;;;;4920355;28;20565;-73
2023/06/12 07:16:32;;;;;;;9.05;4.95;;;;;;;;;;4915653;28;20039;-73
2023/06/12 07:18:58;;;;;;;13.73;5.70;;;;;;;;;;4934698;28;20074;-74
2023/06/12 07:21:26;;;;;;;9.20;4.97;;;;;;;;;;4896904;28;20047;-73
2023/06/12 07:23:52;;;;;;;9.77;5.40;;;;;;;;;;4915488;28;20436;-73
2023/06/12 07:26:18;;;;;;;9.13;5.15;;;;;;;;;;4911021;28;20055;-73
2023/06/12 07:28:46;;;;;;;10.48;5.43;;;;;;;;;;4933593;28;20051;-73
2023/06/12 07:31:12;;;;;;;8.18;4.97;;;;;;;;;;4933949;28;20062;-74
2023/06/12 07:33:38;;;;;;;7.78;4.93;;;;;;;;;;4916439;28;20094;-73
2023/06/12 07:36:04;;;;;;;12.00;5.50;;;;;;;;;;4933697;28;20063;-73
2023/06/12 07:38:30;;;;;;;11.85;5.95;;;;;;;;;;4919820;28;20046;-73
2023/06/12 07:40:57;;;;;;;10.13;4.72;;;;;;;;;;4934191;28;20086;-71
2023/06/12 07:43:23;;;;;;;9.02;4.95;;;;;;;;;;4933188;28;20184;-71
2023/06/12 07:45:49;;;;;;;8.13;5.75;;;;;;;;;;4932748;28;20499;-72
2023/06/12 07:48:15;;;;;;;12.88;5.07;;;;;;;;;;4933864;28;20051;-72
2023/06/12 07:50:42;;;;;;;6.65;4.90;;;;;;;;;;4915187;28;20063;-72
2023/06/12 07:53:08;;;;;;;8.25;5.03;;;;;;;;;;4908602;28;20069;-71
2023/06/12 07:55:35;;;;;;;8.48;5.30;;;;;;;;;;4914470;28;20051;-71
2023/06/12 07:58:01;;;;;;;9.82;5.35;;;;;;;;;;4910702;28;21724;-71
2023/06/12 08:00:27;;;;;;;10.38;5.05;;;;;;;;;;4913855;28;20043;-71
2023/06/12 08:02:59;;;;;;;7.57;5.20;;;;;;;;;;4923400;28;20369;-72
2023/06/12 08:05:26;;;;;;;12.38;5.72;;;;;;;;;;4924457;28;20519;-72
2023/06/12 08:07:52;;;;;;;9.63;6.07;;;;;;;;;;4945755;28;20051;-74
2023/06/12 08:10:18;;;;;;;17.08;5.80;;;;;;;;;;4938359;28;20043;-74
2023/06/12 08:12:45;;;;;;;11.73;5.18;;;;;;;;;;4940945;28;20058;-74
2023/06/12 08:15:11;;;;;;;13.23;5.63;;;;;;;;;;4938628;28;20043;-73
2023/06/12 08:17:41;;;;;;;12.45;4.85;;;;;;;;;;4939207;28;20658;-73
2023/06/12 08:20:09;;;;;;;8.82;5.95;;;;;;;;;;4938822;28;20043;-73
2023/06/12 08:22:36;;;;;;;18.15;6.45;;;;;;;;;;4924527;28;20166;-73
2023/06/12 08:25:05;;;;;;;8.98;5.80;;;;;;;;;;4920230;28;20062;-74
2023/06/12 08:27:31;;;;;;;8.38;6.00;;;;;;;;;;4938825;28;20062;-74
2023/06/12 08:29:57;;;;;;;10.80;5.72;;;;;;;;;;4931705;28;20043;-71
2023/06/12 08:32:23;;;;;;;13.30;5.65;;;;;;;;;;4931111;28;20492;-72
2023/06/12 08:34:50;;;;;;;11.52;5.95;;;;;;;;;;4916926;28;20051;-72
2023/06/12 08:37:18;;;;;;;10.88;5.60;;;;;;;;;;4933395;28;20043;-72
2023/06/12 08:39:44;;;;;;;8.27;5.57;;;;;;;;;;4917410;28;20047;-72
2023/06/12 08:42:21;;;;;;;12.73;6.20;;;;;;;;;;4925936;28;20138;-73
2023/06/12 08:44:47;;;;;;;15.82;6.10;;;;;;;;;;4900120;28;20051;-73
2023/06/12 08:47:14;;;;;;;10.18;6.00;;;;;;;;;;4934669;28;20091;-73
2023/06/12 08:49:40;;;;;;;14.65;5.95;;;;;;;;;;4931926;28;20103;-73
2023/06/12 08:52:06;;;;;;;10.57;5.72;;;;;;;;;;4909039;28;20046;-73
2023/06/12 08:54:34;;;;;;;11.50;6.05;;;;;;;;;;4912604;28;20047;-74
2023/06/12 08:57:00;;;;;;;15.40;6.35;;;;;;;;;;4928524;28;20036;-73
2023/06/12 08:59:26;;;;;;;19.55;6.60;;;;;;;;;;4930076;28;20038;-73
2023/06/12 09:01:54;;;;;;;11.90;6.50;;;;;;;;;;4928973;28;20079;-73
2023/06/12 09:04:28;;;;;;;13.20;6.13;;;;;;;;;;4931181;28;20047;-73
2023/06/12 09:07:03;;;;;;;15.82;6.25;;;;;;;;;;4911910;28;20083;-73
2023/06/12 09:09:39;;;;;;;12.43;5.95;;;;;;;;;;4907992;28;20060;-73
2023/06/12 09:12:08;;;;;;;10.82;6.18;;;;;;;;;;4927745;28;20043;-73
2023/06/12 09:14:35;;;;;;;11.23;6.30;;;;;;;;;;4923521;28;20047;-73
2023/06/12 09:17:05;;;;;;;12.10;5.95;;;;;;;;;;4912691;28;20047;-74
2023/06/12 09:19:38;;;;;;;15.05;6.15;;;;;;;;;;4909835;28;20047;-74
2023/06/12 09:22:04;;;;;;;11.23;6.68;;;;;;;;;;4926846;28;20514;-72
2023/06/12 09:24:30;;;;;;;9.98;6.68;;;;;;;;;;4927497;28;20507;-72
2023/06/12 09:26:56;;;;;;;16.33;6.13;;;;;;;;;;4915453;28;20048;-72
2023/06/12 09:29:36;;;;;;;13.25;6.43;;;;;;;;;;4909404;28;20058;-73
2023/06/12 09:32:03;;;;;;;10.85;6.60;;;23.60;99.90;;;;;;4912360;28;20043;-72
2023/06/12 09:34:33;;;;;;;12.95;6.10;;;;;;;;;;4910103;29;20062;-74
2023/06/12 09:37:00;;;;;;;17.63;7.05;;;;;;;;;;4915967;28;20044;-72
2023/06/12 09:39:26;;;;;;;15.48;6.97;;;;;;;;;;4932481;28;20522;-73
2023/06/12 09:41:53;;;;;;;17.42;6.85;;;;;;;;;;4918704;28;20051;-73
2023/06/12 09:44:22;;;;;;;13.10;7.20;;;;;;;;;;4919070;28;20130;-74
2023/06/12 09:46:49;;;;;;;11.82;6.10;;;;;;;;;;4918194;28;20515;-73
2023/06/12 09:49:18;;;;;;;11.95;6.78;;;;;;;;;;4920826;28;20522;-73
2023/06/12 09:51:47;;;;;;;9.35;6.30;;;;;;;;;;4937998;28;20141;-73
2023/06/12 09:54:15;;;;;;;14.18;7.10;;;;;;;;;;4938981;28;20169;-73
2023/06/12 09:56:41;;;;;;;23.40;7.70;;;;;;;;;;4937384;28;20118;-73
2023/06/12 09:59:09;;;;;;;15.40;6.90;;;;;;;;;;4937113;28;20544;-73
2023/06/12 10:01:39;;;;;;;8.27;5.90;;;;;;;;;;4939721;28;20044;-73
2023/06/12 10:04:10;;;;;;;11.85;7.18;;;;;;;;;;4939284;28;20047;-73
2023/06/12 10:06:38;;;;;;;12.88;7.20;;;;;;;;;;4920470;28;20050;-74
2023/06/12 10:09:06;;;;;;;15.38;7.47;;;;;;;;;;4935366;28;20053;-73
2023/06/12 10:11:32;;;;;;;11.85;6.57;;;;;;;;;;4939155;28;20047;-73
2023/06/12 10:13:58;;;;;;;14.85;6.50;;;;;;;;;;4939886;28;20775;-74
2023/06/12 10:16:25;;;;;;;9.38;7.05;;;;;;;;;;4938684;28;20051;-74
2023/06/12 10:18:56;;;;;;;15.50;6.57;;;26.00;99.90;;;;;;4938359;28;20035;-73
2023/06/12 10:21:22;;;;;;;10.38;7.22;;;;;;;;;;4921032;28;20087;-74
2023/06/12 10:23:49;;;;;;;9.55;6.28;;;;;;;;;;4920177;28;20039;-74
2023/06/12 10:26:15;;;;;;;16.92;7.25;;;;;;;;;;4937607;28;20092;-74
2023/06/12 10:28:42;;;;;;;11.77;6.57;;;;;;;;;;4935748;28;20054;-74
2023/06/12 10:31:10;;;;;;;16.60;6.63;;;;;;;;;;4916998;28;20404;-74
2023/06/12 10:33:37;;;;;;;8.80;5.78;;;;;;;;;;4915226;28;20054;-74
2023/06/12 10:36:10;;;;;;;10.02;5.97;;;;;;;;;;4922188;28;20118;-74
2023/06/12 10:38:49;;;;;;;11.43;6.10;;;;;;;;;;4918838;28;20046;-74
2023/06/12 10:41:31;;;;;;;12.25;6.30;;;;;;;;;;4922591;28;21601;-74
2023/06/12 10:43:57;;;;;;;12.45;5.93;;;;;;;;;;4920841;28;20043;-74
2023/06/12 10:46:23;;;;;;;7.53;5.80;;;;;;;;;;4939478;28;20106;-74
2023/06/12 10:48:49;;;;;;;9.32;5.60;;;;;;;;;;4934230;28;20047;-74
2023/06/12 10:51:16;;;;;;;9.18;5.40;;;;;;;;;;4913962;28;20459;-74
2023/06/12 10:53:45;;;;;;;10.00;5.78;;;;;;;;;;4919808;28;20051;-74
2023/06/12 10:56:11;;;;;;;13.90;5.80;;;;;;;;;;4934963;28;20146;-74
2023/06/12 10:58:38;;;;;;;9.50;5.72;;;;;;;;;;4918162;28;20055;-73
2023/06/12 11:01:09;;;;;;;6.20;4.93;;;;;;;;;;4916932;28;20558;-74
2023/06/12 11:03:44;;;;;;;9.85;5.60;;;28.50;99.90;;;;;;4934771;28;20108;-73
2023/06/12 11:06:15;;;;;;;10.60;5.47;;;;;;;;;;4917064;28;20050;-74
2023/06/12 11:08:41;;;;;;;11.40;5.07;;;;;;;;;;4915231;28;20756;-74
2023/06/12 11:11:08;;;;;;;6.28;5.07;;;;;;;;;;4927454;28;20530;-74
2023/06/12 11:13:35;;;;;;;7.97;5.72;;;;;;;;;;4927381;28;20039;-73
2023/06/12 11:16:01;;;;;;;8.45;4.95;;;;;;;;;;4899825;28;20047;-74
2023/06/12 11:18:28;;;;;;;7.75;5.00;;;;;;;;;;4895295;28;20082;-73
2023/06/12 11:20:55;;;;;;;11.95;5.30;;;;;;;;;;4929239;28;20039;-74
2023/06/12 11:23:22;;;;;;;9.95;5.60;;;;;;;;;;4915194;28;20043;-74
2023/06/12 11:25:49;;;;;;;11.82;5.10;;;;;;;;;;4916962;28;20185;-74
2023/06/12 11:28:16;;;;;;;6.75;4.97;;;;;;;;;;4915633;28;20376;-74
2023/06/12 11:30:46;;;;;;;8.23;4.75;;;;;;;;;;4908823;28;20212;-74
2023/06/12 11:33:16;;;;;;;10.60;4.80;;;;;;;;;;4930429;28;20040;-74
2023/06/12 11:35:43;;;;;;;14.82;4.93;;;;;;;;;;4911751;28;20087;-74
2023/06/12 11:38:12;;;;;;;8.43;4.72;;;;;;;;;;4931659;28;20217;-74
2023/06/12 11:40:38;;;;;;;9.15;4.60;;;;;;;;;;4912887;28;20051;-74
2023/06/12 11:43:05;;;;;;;5.15;4.65;;;;;;;;;;4908536;28;20488;-74
2023/06/12 11:45:32;;;;;;;11.18;4.82;;;;;;;;;;4928302;28;20420;-73
2023/06/12 11:47:59;;;;;;;6.72;4.90;;;;;;;;;;4918418;28;20132;-73
2023/06/12 11:50:25;;;;;;;11.75;5.35;;;;;;;;;;4916122;28;20438;-73
2023/06/12 11:52:51;;;;;;;7.18;5.07;;;;;;;;;;4916919;28;20051;-73
2023/06/12 11:55:17;;;;;;;9.35;4.80;;;;;;;;;;4933568;28;20050;-73
2023/06/12 11:57:48;;;;;;;5.57;4.72;;;;;;;;;;4934887;28;20707;-73
2023/06/12 12:00:16;;;;;;;11.82;5.20;;;;;;;;;;4900626;28;20048;-73
2023/06/12 12:02:43;;;;;;;9.10;5.20;;;;;;;;;;4932528;28;20090;-74
2023/06/12 12:05:16;;;;;;;6.45;5.03;;;;;;;;;;4931949;28;20664;-74
2023/06/12 12:07:45;;;;;;;7.82;4.95;;;;;;;;;;4898753;28;20138;-74
2023/06/12 12:10:14;;;;;;;8.73;4.95;;;;;;;;;;4914424;28;20051;-73
2023/06/12 12:12:42;;;;;;;9.60;5.18;;;;;;;;;;4915180;28;20047;-73
2023/06/12 12:15:10;;;;;;;7.25;4.90;;;;;;;;;;4895668;28;20054;-73
2023/06/12 12:17:37;;;;;;;7.13;5.05;;;;;;;;;;4930659;28;20046;-73
2023/06/12 12:20:07;;;;;;;7.50;5.57;;;;;;;;;;4932057;28;20051;-73
2023/06/12 12:22:37;;;;;;;7.30;5.28;;;;;;;;;;4932781;28;20051;-73
2023/06/12 12:25:03;;;;;;;9.07;5.68;;;;;;;;;;4917284;28;20740;-74
2023/06/12 12:27:29;;;;;;;7.90;5.40;;;;;;;;;;4914418;28;20059;-74
2023/06/12 12:29:56;;;;;;;5.60;4.93;;;;;;;;;;4915361;28;20066;-74
2023/06/12 12:32:22;;;;;;;13.77;5.57;;;;;;;;;;4927296;28;20035;-73
2023/06/12 12:34:48;;;;;;;7.85;5.25;;;;;;;;;;4934004;28;20755;-73
2023/06/12 12:37:14;;;;;;;9.07;5.43;;;;;;;;;;4908986;28;20047;-73
2023/06/12 12:39:40;;;;;;;8.38;5.50;;;;;;;;;;4910418;28;20047;-73
2023/06/12 12:42:06;;;;;;;11.15;5.53;;;;;;;;;;4914239;28;20127;-73
2023/06/12 12:44:33;;;;;;;7.53;5.50;;;;;;;;;;4911050;28;20496;-74
2023/06/12 12:46:59;;;;;;;6.55;4.82;;;;;;;;;;4933902;28;20105;-74
2023/06/12 12:49:28;;;;;;;6.85;4.97;;;;;;;;;;4903215;28;20074;-75
2023/06/12 12:51:54;;;;;;;11.10;5.07;;;;;;;;;;4916583;28;20043;-74
2023/06/12 12:54:20;;;;;;;7.55;5.18;;;;;;;;;;4898006;28;20047;-75
2023/06/12 12:56:47;;;;;;;5.50;5.00;;;;;;;;;;4911596;28;20376;-75
2023/06/12 12:59:13;;;;;;;8.63;5.00;;;;;;;;;;4883439;28;20055;-74
2023/06/12 13:01:39;;;;;;;7.93;5.35;;;;;;;;;;4915146;28;20051;-74
2023/06/12 13:04:06;;;;;;;10.60;5.00;;;;;;;;;;4913369;28;20051;-74
2023/06/12 13:06:34;;;;;;;8.80;5.00;;;;;;;;;;4933242;28;20079;-75
2023/06/12 13:09:00;;;;;;;13.52;5.57;;;;;;;;;;4932868;28;20047;-74
2023/06/12 13:11:26;;;;;;;11.57;5.07;;;;;;;;;;4933693;28;20550;-74
2023/06/12 13:13:53;;;;;;;5.47;4.60;;;;;;;;;;4900990;28;20032;-74
2023/06/12 13:16:20;;;;;;;7.95;4.95;;;;;;;;;;4897757;28;20097;-73
2023/06/12 13:18:46;;;;;;;7.55;4.80;;;;;;;;;;4896546;28;20146;-73
2023/06/12 13:21:12;;;;;;;9.38;5.28;;;;;;;;;;4918101;28;20047;-73
2023/06/12 13:23:38;;;;;;;11.45;5.00;;;;;;;;;;4925110;28;20039;-73
2023/06/12 13:26:04;;;;;;;8.57;5.43;;;;;;;;;;4933260;28;20047;-73
2023/06/12 13:28:33;;;;;;;7.30;5.38;;;;;;;;;;4913627;28;20411;-73
2023/06/12 13:30:59;;;;;;;6.45;5.60;;;;;;;;;;4913115;28;20070;-73
2023/06/12 13:33:25;;;;;;;5.53;5.03;;;;;;;;;;4933975;28;20385;-73
2023/06/12 13:35:52;;;;;;;8.07;5.60;;;;;;;;;;4916143;28;20047;-74
2023/06/12 13:38:18;;;;;;;6.20;5.55;;;;;;;;;;4916721;28;20047;-73
2023/06/12 13:40:44;;;;;;;6.20;5.57;;;;;;;;;;4901368;28;20058;-73
2023/06/12 13:43:10;;;;;;;9.18;5.68;;;;;;;;;;4911262;28;20241;-73
2023/06/12 13:45:37;;;;;;;13.02;5.68;;;;;;;;;;4915495;28;20141;-74
2023/06/12 13:48:03;;;;;;;6.68;5.72;;;;;;;;;;4916107;28;20478;-72
2023/06/12 13:50:30;;;;;;;9.93;5.80;;;;;;;;;;4933510;28;20064;-72
2023/06/12 13:52:56;;;;;;;11.15;5.75;;;;;;;;;;4930683;28;20507;-74
2023/06/12 13:55:22;;;;;;;7.90;5.80;;;;;;;;;;4910759;28;20047;-74
2023/06/12 13:57:48;;;;;;;14.70;5.72;;;;;;;;;;4913195;28;20039;-74
2023/06/12 14:00:15;;;;;;;6.28;5.68;;;;;;;;;;4912362;28;20106;-74
2023/06/12 14:02:41;;;;;;;8.40;5.70;;;;;;;;;;4930876;28;20050;-73
2023/06/12 14:05:08;;;;;;;6.35;5.38;;;;;;;;;;4915424;28;20142;-73
2023/06/12 14:07:34;;;;;;;11.38;6.30;;;;;;;;;;4927981;28;20051;-73
2023/06/12 14:10:00;;;;;;;7.60;6.22;;;;;;;;;;4925534;28;20452;-73
2023/06/12 14:12:26;;;;;;;7.10;5.47;;;;;;;;;;4913292;28;20105;-73
2023/06/12 14:14:53;;;;;;;7.63;5.70;;;;;;;;;;4908222;28;20078;-74
2023/06/12 14:17:19;;;;;;;10.10;5.93;;;;;;;;;;4921139;28;20165;-73
2023/06/12 14:19:45;;;;;;;7.35;6.10;;;;;;;;;;4901982;28;20151;-74
2023/06/12 14:22:11;;;;;;;8.65;5.47;;;;;;;;;;4911948;28;20405;-74
2023/06/12 14:24:37;;;;;;;7.00;5.68;;;;;;;;;;4935154;28;20075;-73
2023/06/12 14:27:04;;;;;;;11.60;5.85;;;;;;;;;;4933967;28;20043;-74
2023/06/12 14:29:30;;;;;;;8.38;6.20;;;;;;;;;;4928606;28;20042;-74
2023/06/12 14:31:57;;;;;;;7.10;5.70;;;;;;;;;;4929882;28;20715;-74
2023/06/12 14:34:23;;;;;;;7.40;5.95;;;;;;;;;;4929440;28;20110;-74
2023/06/12 14:36:49;;;;;;;12.50;5.72;;;;;;;;;;4914020;28;20074;-74
2023/06/12 14:39:15;;;;;;;6.05;5.25;;;;;;;;;;4912104;28;21067;-74